createdAt,value
2022-08-07T00:00:03.006Z,1024.90
2022-08-07T00:02:35.535Z,1024.91
2022-08-07T00:02:36.454Z,1024.91
2022-08-07T00:03:03.679Z,1024.90
2022-08-07T00:04:03.387Z,1024.90
2022-08-07T00:05:03.900Z,1024.89
2022-08-07T00:06:02.601Z,1024.89
2022-08-07T00:07:05.026Z,1024.88
2022-08-07T00:08:02.336Z,1024.90
2022-08-07T00:09:16.254Z,1024.91
2022-08-07T00:10:25.721Z,1024.91
2022-08-07T00:11:29.944Z,1024.90
2022-08-07T00:12:03.140Z,1024.88
2022-08-07T00:13:09.567Z,1024.89
2022-08-07T00:14:03.136Z,1024.85
2022-08-07T00:15:02.444Z,1024.81
2022-08-07T00:16:02.125Z,1024.84
2022-08-07T00:17:02.692Z,1024.79
2022-08-07T00:18:02.106Z,1024.80
2022-08-07T00:19:02.345Z,1024.80
2022-08-07T00:20:03.215Z,1024.77
2022-08-07T00:21:56.656Z,1024.79
2022-08-07T00:22:03.576Z,1024.83
2022-08-07T00:23:02.226Z,1024.80
2022-08-07T00:24:01.972Z,1024.80
2022-08-07T00:25:02.769Z,1024.78
2022-08-07T00:26:13.300Z,1024.78
2022-08-07T00:27:07.310Z,1024.74
2022-08-07T00:28:03.185Z,1024.73
2022-08-07T00:29:01.932Z,1024.73
2022-08-07T00:30:02.176Z,1024.71
2022-08-07T00:31:22.430Z,1024.70
2022-08-07T00:32:02.161Z,1024.67
2022-08-07T00:33:02.234Z,1024.66
2022-08-07T00:34:02.301Z,1024.64
2022-08-07T00:35:02.110Z,1024.62
2022-08-07T00:36:02.825Z,1024.63
2022-08-07T00:37:02.106Z,1024.66
2022-08-07T00:38:01.857Z,1024.62
2022-08-07T00:39:02.163Z,1024.58
2022-08-07T00:40:01.855Z,1024.60
2022-08-07T00:41:22.095Z,1024.59
2022-08-07T00:42:05.449Z,1024.56
2022-08-07T00:43:02.004Z,1024.58
2022-08-07T00:44:02.954Z,1024.59
2022-08-07T00:45:01.991Z,1024.60
2022-08-07T00:46:02.731Z,1024.63
2022-08-07T00:47:01.972Z,1024.63
2022-08-07T00:48:09.358Z,1024.59
2022-08-07T00:49:03.361Z,1024.59
2022-08-07T00:50:21.326Z,1024.58
2022-08-07T00:51:22.965Z,1024.53
2022-08-07T00:52:02.725Z,1024.52
2022-08-07T00:53:01.942Z,1024.58
2022-08-07T00:54:01.701Z,1024.56
2022-08-07T00:55:04.771Z,1024.54
2022-08-07T00:56:04.039Z,1024.56
2022-08-07T00:57:02.047Z,1024.56
2022-08-07T00:58:01.835Z,1024.57
2022-08-07T00:59:02.085Z,1024.55
2022-08-07T01:00:01.835Z,1024.50
2022-08-07T01:01:22.117Z,1024.49
2022-08-07T01:02:01.840Z,1024.49
2022-08-07T01:03:01.559Z,1024.51
2022-08-07T01:04:01.796Z,1024.50
2022-08-07T01:05:02.035Z,1024.48
2022-08-07T01:06:01.776Z,1024.51
2022-08-07T01:07:01.515Z,1024.45
2022-08-07T01:08:01.757Z,1024.44
2022-08-07T01:09:01.606Z,1024.43
2022-08-07T01:10:06.226Z,1024.43
2022-08-07T01:12:04.324Z,1024.45
2022-08-07T01:12:27.377Z,1024.42
2022-08-07T01:13:02.883Z,1024.44
2022-08-07T01:14:01.679Z,1024.43
2022-08-07T01:15:03.882Z,1024.44
2022-08-07T01:16:05.815Z,1024.39
2022-08-07T01:17:04.233Z,1024.40
2022-08-07T01:18:02.830Z,1024.35
2022-08-07T01:19:01.621Z,1024.36
2022-08-07T01:20:01.372Z,1024.39
2022-08-07T01:21:22.684Z,1024.38
2022-08-07T01:22:03.133Z,1024.41
2022-08-07T01:23:12.700Z,1024.36
2022-08-07T01:24:04.364Z,1024.33
2022-08-07T01:25:05.228Z,1024.35
2022-08-07T01:26:03.768Z,1024.38
2022-08-07T01:27:02.736Z,1024.31
2022-08-07T01:28:02.582Z,1024.31
2022-08-07T01:29:01.444Z,1024.29
2022-08-07T01:30:01.797Z,1024.28
2022-08-07T01:31:21.534Z,1024.22
2022-08-07T01:32:05.476Z,1024.26
2022-08-07T01:33:03.684Z,1024.24
2022-08-07T01:34:02.506Z,1024.27
2022-08-07T01:35:02.277Z,1024.22
2022-08-07T01:36:06.281Z,1024.23
2022-08-07T01:37:03.419Z,1024.22
2022-08-07T01:38:03.232Z,1024.23
2022-08-07T01:39:04.111Z,1024.26
2022-08-07T01:40:03.374Z,1024.20
2022-08-07T01:41:26.143Z,1024.21
2022-08-07T01:42:36.931Z,1024.17
2022-08-07T01:43:03.657Z,1024.16
2022-08-07T01:44:03.439Z,1024.18
2022-08-07T01:45:03.227Z,1024.17
2022-08-07T01:46:01.670Z,1024.18
2022-08-07T01:48:16.486Z,1024.15
2022-08-07T01:48:20.331Z,1024.15
2022-08-07T01:49:03.539Z,1024.12
2022-08-07T01:50:03.314Z,1024.17
2022-08-07T01:52:00.923Z,1024.18
2022-08-07T01:52:04.844Z,1024.15
2022-08-07T01:53:08.913Z,1024.17
2022-08-07T01:54:12.761Z,1024.13
2022-08-07T01:55:04.378Z,1024.14
2022-08-07T01:56:03.153Z,1024.13
2022-08-07T01:57:02.163Z,1024.14
2022-08-07T01:58:06.625Z,1024.15
2022-08-07T01:59:03.750Z,1024.17
2022-08-07T02:00:03.315Z,1024.14
2022-08-07T02:01:25.603Z,1024.20
2022-08-07T02:02:04.376Z,1024.18
2022-08-07T02:03:12.172Z,1024.16
2022-08-07T02:04:02.958Z,1024.15
2022-08-07T02:05:04.700Z,1024.15
2022-08-07T02:06:02.590Z,1024.16
2022-08-07T02:07:03.389Z,1024.18
2022-08-07T02:08:02.163Z,1024.16
2022-08-07T02:09:04.197Z,1024.15
2022-08-07T02:10:02.806Z,1024.20
2022-08-07T02:11:30.750Z,1024.13
2022-08-07T02:12:05.277Z,1024.14
2022-08-07T02:13:01.803Z,1024.18
2022-08-07T02:14:02.553Z,1024.18
2022-08-07T02:15:06.682Z,1024.16
2022-08-07T02:16:01.772Z,1024.18
2022-08-07T02:17:03.249Z,1024.15
2022-08-07T02:18:02.983Z,1024.15
2022-08-07T02:19:01.878Z,1024.14
2022-08-07T02:20:04.155Z,1024.14
2022-08-07T02:21:21.944Z,1024.09
2022-08-07T02:22:01.738Z,1024.10
2022-08-07T02:23:02.066Z,1024.09
2022-08-07T02:24:02.926Z,1024.10
2022-08-07T02:25:02.215Z,1024.06
2022-08-07T02:26:31.941Z,1024.06
2022-08-07T02:27:03.894Z,1024.11
2022-08-07T02:28:02.166Z,1024.03
2022-08-07T02:29:02.536Z,1024.09
2022-08-07T02:30:04.013Z,1024.07
2022-08-07T02:31:28.519Z,1024.05
2022-08-07T02:32:03.061Z,1024.03
2022-08-07T02:33:09.408Z,1024.03
2022-08-07T02:34:11.461Z,1024.05
2022-08-07T02:35:03.839Z,1024.03
2022-08-07T02:36:29.323Z,1024.04
2022-08-07T02:37:01.477Z,1024.04
2022-08-07T02:38:03.013Z,1024.04
2022-08-07T02:39:09.179Z,1024.05
2022-08-07T02:40:31.061Z,1024.03
2022-08-07T02:41:22.108Z,1024.10
2022-08-07T02:42:01.965Z,1024.06
2022-08-07T02:43:01.736Z,1024.06
2022-08-07T02:44:03.526Z,1024.04
2022-08-07T02:45:11.992Z,1024.05
2022-08-07T02:46:02.885Z,1024.07
2022-08-07T02:47:02.710Z,1024.06
2022-08-07T02:48:01.802Z,1024.06
2022-08-07T02:49:03.355Z,1024.04
2022-08-07T02:50:02.637Z,1024.06
2022-08-07T02:51:42.038Z,1024.04
2022-08-07T02:52:02.388Z,1024.03
2022-08-07T02:53:03.372Z,1024.07
2022-08-07T02:54:01.769Z,1024.02
2022-08-07T02:55:01.591Z,1023.99
2022-08-07T02:56:05.886Z,1024.00
2022-08-07T02:57:03.640Z,1024.02
2022-08-07T02:58:00.707Z,1023.98
2022-08-07T02:59:02.590Z,1023.98
2022-08-07T03:00:05.046Z,1024.01
2022-08-07T03:01:36.672Z,1024.01
2022-08-07T03:02:03.458Z,1024.05
2022-08-07T03:03:06.042Z,1024.05
2022-08-07T03:04:03.492Z,1024.06
2022-08-07T03:05:05.109Z,1024.04
2022-08-07T03:06:02.438Z,1024.05
2022-08-07T03:07:07.371Z,1024.07
2022-08-07T03:08:05.226Z,1024.01
2022-08-07T03:09:03.551Z,1024.01
2022-08-07T03:10:02.305Z,1024.02
2022-08-07T03:11:20.642Z,1024.02
2022-08-07T03:12:02.737Z,1024.05
2022-08-07T03:13:01.590Z,1024.02
2022-08-07T03:14:02.363Z,1024.03
2022-08-07T03:15:02.348Z,1024.03
2022-08-07T03:16:02.621Z,1023.98
2022-08-07T03:17:04.447Z,1024.00
2022-08-07T03:18:02.214Z,1023.98
2022-08-07T03:19:01.491Z,1023.97
2022-08-07T03:20:02.367Z,1023.97
2022-08-07T03:21:20.175Z,1023.97
2022-08-07T03:22:00.502Z,1023.96
2022-08-07T03:23:02.406Z,1023.99
2022-08-07T03:24:19.629Z,1024.00
2022-08-07T03:25:02.492Z,1023.93
2022-08-07T03:26:02.267Z,1023.94
2022-08-07T03:27:02.102Z,1023.94
2022-08-07T03:28:09.797Z,1023.96
2022-08-07T03:29:02.491Z,1023.94
2022-08-07T03:30:03.799Z,1023.90
2022-08-07T03:31:24.550Z,1023.90
2022-08-07T03:32:02.510Z,1023.92
2022-08-07T03:33:02.266Z,1023.91
2022-08-07T03:34:02.028Z,1023.90
2022-08-07T03:35:17.535Z,1023.94
2022-08-07T03:36:02.483Z,1023.91
2022-08-07T03:37:01.178Z,1023.86
2022-08-07T03:38:02.361Z,1023.88
2022-08-07T03:39:05.445Z,1023.87
2022-08-07T03:40:14.897Z,1023.90
2022-08-07T03:41:21.327Z,1023.93
2022-08-07T03:42:02.530Z,1023.94
2022-08-07T03:43:02.370Z,1023.95
2022-08-07T03:44:02.142Z,1023.99
2022-08-07T03:45:01.920Z,1023.95
2022-08-07T03:46:02.802Z,1023.93
2022-08-07T03:47:13.029Z,1023.96
2022-08-07T03:48:02.341Z,1023.91
2022-08-07T03:49:03.418Z,1023.93
2022-08-07T03:50:00.123Z,1023.93
2022-08-07T03:51:20.741Z,1023.94
2022-08-07T03:52:02.155Z,1023.93
2022-08-07T03:53:01.731Z,1023.91
2022-08-07T03:54:33.156Z,1023.88
2022-08-07T03:55:06.518Z,1023.94
2022-08-07T03:56:04.062Z,1023.88
2022-08-07T03:57:07.235Z,1023.89
2022-08-07T03:58:34.772Z,1023.91
2022-08-07T03:59:13.155Z,1023.89
2022-08-07T04:00:04.079Z,1023.95
2022-08-07T04:01:22.410Z,1023.96
2022-08-07T04:02:02.039Z,1023.94
2022-08-07T04:03:03.878Z,1023.95
2022-08-07T04:04:04.832Z,1023.95
2022-08-07T04:05:00.889Z,1023.98
2022-08-07T04:06:00.089Z,1023.98
2022-08-07T04:07:02.023Z,1024.01
2022-08-07T04:08:02.046Z,1024.02
2022-08-07T04:09:01.863Z,1024.03
2022-08-07T04:10:02.905Z,1024.07
2022-08-07T04:12:25.107Z,1024.01
2022-08-07T04:12:26.431Z,1024.02
2022-08-07T04:13:02.781Z,1024.02
2022-08-07T04:14:10.207Z,1024.01
2022-08-07T04:15:02.058Z,1023.99
2022-08-07T04:16:01.827Z,1024.04
2022-08-07T04:17:03.137Z,1024.06
2022-08-07T04:18:31.410Z,1024.07
2022-08-07T04:19:04.061Z,1024.09
2022-08-07T04:20:01.916Z,1024.10
2022-08-07T04:21:19.769Z,1024.06
2022-08-07T04:22:08.694Z,1024.07
2022-08-07T04:23:06.289Z,1024.09
2022-08-07T04:24:07.573Z,1024.09
2022-08-07T04:25:02.768Z,1024.02
2022-08-07T04:26:00.285Z,1024.10
2022-08-07T04:27:01.836Z,1024.05
2022-08-07T04:28:01.709Z,1024.08
2022-08-07T04:29:00.881Z,1024.03
2022-08-07T04:30:04.911Z,1024.06
2022-08-07T04:31:20.476Z,1024.07
2022-08-07T04:32:10.040Z,1024.06
2022-08-07T04:33:01.781Z,1024.04
2022-08-07T04:34:02.621Z,1024.02
2022-08-07T04:35:01.409Z,1024.07
2022-08-07T04:36:02.271Z,1024.03
2022-08-07T04:36:59.624Z,1023.99
2022-08-07T04:38:06.517Z,1024.05
2022-08-07T04:39:00.124Z,1024.03
2022-08-07T04:40:00.549Z,1024.04
2022-08-07T04:41:19.409Z,1024.01
2022-08-07T04:41:59.972Z,1024.06
2022-08-07T04:43:03.366Z,1024.05
2022-08-07T04:44:12.056Z,1024.09
2022-08-07T04:45:02.912Z,1024.07
2022-08-07T04:46:02.363Z,1024.08
2022-08-07T04:47:08.120Z,1024.12
2022-08-07T04:48:10.584Z,1024.13
2022-08-07T04:48:59.884Z,1024.09
2022-08-07T04:50:04.575Z,1024.11
2022-08-07T04:51:19.747Z,1024.16
2022-08-07T04:52:02.541Z,1024.16
2022-08-07T04:53:03.139Z,1024.16
2022-08-07T04:54:05.407Z,1024.18
2022-08-07T04:55:02.378Z,1024.21
2022-08-07T04:58:10.080Z,1024.22
2022-08-07T04:58:11.333Z,1024.15
2022-08-07T04:58:14.875Z,1024.21
2022-08-07T05:00:09.632Z,1024.23
2022-08-07T05:01:20.388Z,1024.18
2022-08-07T05:01:59.989Z,1024.19
2022-08-07T05:03:00.342Z,1024.21
2022-08-07T05:04:07.658Z,1024.22
2022-08-07T05:04:59.969Z,1024.19
2022-08-07T05:06:01.280Z,1024.18
2022-08-07T05:07:00.475Z,1024.20
2022-08-07T05:08:00.094Z,1024.22
2022-08-07T05:09:02.538Z,1024.26
2022-08-07T05:10:01.154Z,1024.21
2022-08-07T05:11:24.379Z,1024.27
2022-08-07T05:12:02.538Z,1024.27
2022-08-07T05:14:44.551Z,1024.25
2022-08-07T05:14:55.031Z,1024.31
2022-08-07T05:15:03.494Z,1024.26
2022-08-07T05:16:04.568Z,1024.33
2022-08-07T05:17:00.913Z,1024.28
2022-08-07T05:18:08.784Z,1024.29
2022-08-07T05:19:00.963Z,1024.30
2022-08-07T05:20:01.206Z,1024.31
2022-08-07T05:22:00.473Z,1024.31
2022-08-07T05:22:01.562Z,1024.33
2022-08-07T05:23:01.201Z,1024.29
2022-08-07T05:24:00.951Z,1024.32
2022-08-07T05:25:00.415Z,1024.33
2022-08-07T05:26:13.491Z,1024.33
2022-08-07T05:26:59.938Z,1024.33
2022-08-07T05:28:15.914Z,1024.31
2022-08-07T05:29:00.009Z,1024.36
2022-08-07T05:30:01.035Z,1024.32
2022-08-07T05:31:18.854Z,1024.41
2022-08-07T05:32:01.046Z,1024.38
2022-08-07T05:32:59.560Z,1024.40
2022-08-07T05:34:05.589Z,1024.42
2022-08-07T05:35:02.206Z,1024.47
2022-08-07T05:36:01.128Z,1024.48
2022-08-07T05:36:59.937Z,1024.46
2022-08-07T05:38:08.359Z,1024.43
2022-08-07T05:40:05.948Z,1024.40
2022-08-07T05:40:13.850Z,1024.42
2022-08-07T05:41:21.966Z,1024.41
2022-08-07T05:42:01.751Z,1024.40
2022-08-07T05:42:59.853Z,1024.46
2022-08-07T05:44:12.298Z,1024.45
2022-08-07T05:45:14.370Z,1024.49
2022-08-07T05:45:59.989Z,1024.52
2022-08-07T05:47:00.264Z,1024.50
2022-08-07T05:48:02.733Z,1024.53
2022-08-07T05:48:59.874Z,1024.48
2022-08-07T05:50:00.670Z,1024.49
2022-08-07T05:51:18.981Z,1024.47
2022-08-07T05:52:00.671Z,1024.50
2022-08-07T05:53:00.950Z,1024.49
2022-08-07T05:54:13.382Z,1024.55
2022-08-07T05:55:10.347Z,1024.55
2022-08-07T05:56:03.700Z,1024.58
2022-08-07T05:57:01.711Z,1024.56
2022-08-07T05:58:00.483Z,1024.53
2022-08-07T05:59:00.733Z,1024.53
2022-08-07T06:00:01.172Z,1024.47
2022-08-07T06:01:18.850Z,1024.54
2022-08-07T06:01:59.935Z,1024.54
2022-08-07T06:03:00.797Z,1024.46
2022-08-07T06:04:01.296Z,1024.51
2022-08-07T06:05:00.713Z,1024.52
2022-08-07T06:06:00.563Z,1024.52
2022-08-07T06:07:03.444Z,1024.55
2022-08-07T06:08:05.314Z,1024.51
2022-08-07T06:08:59.807Z,1024.51
2022-08-07T06:10:05.598Z,1024.53
2022-08-07T06:11:19.523Z,1024.51
2022-08-07T06:12:00.718Z,1024.52
2022-08-07T06:12:59.490Z,1024.57
2022-08-07T06:14:12.888Z,1024.51
2022-08-07T06:15:05.627Z,1024.55
2022-08-07T06:16:01.330Z,1024.53
2022-08-07T06:17:00.603Z,1024.50
2022-08-07T06:18:00.362Z,1024.53
2022-08-07T06:18:59.129Z,1024.51
2022-08-07T06:20:04.215Z,1024.50
2022-08-07T06:22:14.542Z,1024.46
2022-08-07T06:22:15.646Z,1024.52
2022-08-07T06:23:02.341Z,1024.45
2022-08-07T06:24:37.989Z,1024.49
2022-08-07T06:25:01.598Z,1024.47
2022-08-07T06:26:00.517Z,1024.44
2022-08-07T06:27:00.284Z,1024.42
2022-08-07T06:28:01.990Z,1024.44
2022-08-07T06:29:01.137Z,1024.47
2022-08-07T06:29:59.620Z,1024.50
2022-08-07T06:31:18.440Z,1024.48
2022-08-07T06:32:00.160Z,1024.47
2022-08-07T06:33:00.420Z,1024.44
2022-08-07T06:34:00.194Z,1024.48
2022-08-07T06:35:00.461Z,1024.47
2022-08-07T06:36:12.158Z,1024.45
2022-08-07T06:37:02.714Z,1024.41
2022-08-07T06:38:00.351Z,1024.49
2022-08-07T06:40:15.907Z,1024.34
2022-08-07T06:40:17.019Z,1024.41
2022-08-07T06:41:29.337Z,1024.38
2022-08-07T06:42:03.281Z,1024.36
2022-08-07T06:43:00.241Z,1024.38
2022-08-07T06:44:06.568Z,1024.39
2022-08-07T06:44:59.361Z,1024.36
2022-08-07T06:46:00.932Z,1024.40
2022-08-07T06:47:10.577Z,1024.39
2022-08-07T06:48:00.017Z,1024.43
2022-08-07T06:49:00.180Z,1024.41
2022-08-07T06:49:59.049Z,1024.36
2022-08-07T06:51:31.157Z,1024.36
2022-08-07T06:52:07.478Z,1024.34
2022-08-07T06:52:59.938Z,1024.32
2022-08-07T06:55:28.350Z,1024.27
2022-08-07T06:55:33.157Z,1024.28
2022-08-07T06:56:01.995Z,1024.28
2022-08-07T06:56:59.991Z,1024.29
2022-08-07T06:57:59.499Z,1024.33
2022-08-07T07:00:12.291Z,1024.31
2022-08-07T07:00:13.244Z,1024.33
2022-08-07T07:01:19.129Z,1024.31
2022-08-07T07:01:59.288Z,1024.32
2022-08-07T07:03:01.135Z,1024.33
2022-08-07T07:04:08.259Z,1024.32
2022-08-07T07:04:59.932Z,1024.31
2022-08-07T07:06:03.252Z,1024.30
2022-08-07T07:07:01.889Z,1024.30
2022-08-07T07:08:06.347Z,1024.32
2022-08-07T07:08:59.853Z,1024.33
2022-08-07T07:10:00.010Z,1024.22
2022-08-07T07:12:06.848Z,1024.28
2022-08-07T07:12:10.634Z,1024.27
2022-08-07T07:12:58.164Z,1024.30
2022-08-07T07:14:02.512Z,1024.30
2022-08-07T07:14:58.185Z,1024.27
2022-08-07T07:15:57.907Z,1024.26
2022-08-07T07:16:57.636Z,1024.21
2022-08-07T07:17:58.065Z,1024.24
2022-08-07T07:18:57.633Z,1024.29
2022-08-07T07:19:59.143Z,1024.28
2022-08-07T07:21:19.339Z,1024.29
2022-08-07T07:22:12.242Z,1024.30
2022-08-07T07:24:08.870Z,1024.33
2022-08-07T07:24:08.993Z,1024.31
2022-08-07T07:25:03.070Z,1024.30
2022-08-07T07:26:35.720Z,1024.30
2022-08-07T07:26:59.030Z,1024.29
2022-08-07T07:28:02.771Z,1024.32
2022-08-07T07:29:40.117Z,1024.24
2022-08-07T07:30:09.103Z,1024.23
2022-08-07T07:31:21.422Z,1024.30
2022-08-07T07:31:57.531Z,1024.29
2022-08-07T07:32:57.760Z,1024.29
2022-08-07T07:33:57.532Z,1024.27
2022-08-07T07:34:57.753Z,1024.25
2022-08-07T07:36:05.503Z,1024.26
2022-08-07T07:36:57.943Z,1024.27
2022-08-07T07:38:02.710Z,1024.31
2022-08-07T07:38:58.468Z,1024.31
2022-08-07T07:39:57.714Z,1024.29
2022-08-07T07:41:17.461Z,1024.33
2022-08-07T07:42:12.879Z,1024.34
2022-08-07T07:42:57.856Z,1024.31
2022-08-07T07:44:16.775Z,1024.33
2022-08-07T07:44:58.347Z,1024.33
2022-08-07T07:46:36.618Z,1024.28
2022-08-07T07:47:13.496Z,1024.28
2022-08-07T07:47:57.794Z,1024.23
2022-08-07T07:49:08.797Z,1024.20
2022-08-07T07:50:34.880Z,1024.21
2022-08-07T07:51:18.528Z,1024.19
2022-08-07T07:51:58.165Z,1024.24
2022-08-07T07:52:57.538Z,1024.17
2022-08-07T07:53:57.288Z,1024.12
2022-08-07T07:54:57.550Z,1024.09
2022-08-07T07:56:00.521Z,1024.11
2022-08-07T07:56:57.642Z,1024.11
2022-08-07T07:57:58.434Z,1024.08
2022-08-07T07:58:57.540Z,1024.08
2022-08-07T07:59:57.268Z,1024.06
2022-08-07T08:02:01.635Z,1024.07
2022-08-07T08:02:05.091Z,1024.09
2022-08-07T08:03:04.656Z,1024.06
2022-08-07T08:04:11.018Z,1024.06
2022-08-07T08:05:00.344Z,1024.08
2022-08-07T08:05:57.171Z,1024.04
2022-08-07T08:07:02.877Z,1024.02
2022-08-07T08:08:00.934Z,1024.02
2022-08-07T08:08:57.425Z,1024.00
2022-08-07T08:10:04.908Z,1023.97
2022-08-07T08:11:59.492Z,1023.96
2022-08-07T08:12:03.006Z,1023.98
2022-08-07T08:12:59.965Z,1023.98
2022-08-07T08:13:57.118Z,1023.99
2022-08-07T08:14:57.367Z,1024.01
2022-08-07T08:15:58.144Z,1023.96
2022-08-07T08:16:57.340Z,1023.97
2022-08-07T08:17:58.767Z,1023.98
2022-08-07T08:18:58.274Z,1023.97
2022-08-07T08:20:22.357Z,1023.99
2022-08-07T08:21:19.010Z,1023.94
2022-08-07T08:22:03.696Z,1023.96
2022-08-07T08:22:58.207Z,1024.00
2022-08-07T08:23:57.462Z,1023.95
2022-08-07T08:25:18.546Z,1023.95
2022-08-07T08:25:57.401Z,1023.96
2022-08-07T08:26:57.152Z,1023.93
2022-08-07T08:28:01.761Z,1023.90
2022-08-07T08:28:58.150Z,1023.92
2022-08-07T08:29:56.983Z,1023.94
2022-08-07T08:31:30.160Z,1023.92
2022-08-07T08:32:17.186Z,1023.92
2022-08-07T08:32:58.098Z,1023.90
2022-08-07T08:33:57.110Z,1023.92
2022-08-07T08:34:57.091Z,1023.97
2022-08-07T08:35:57.773Z,1023.99
2022-08-07T08:36:57.917Z,1023.97
2022-08-07T08:38:01.508Z,1023.98
2022-08-07T08:38:58.156Z,1023.96
2022-08-07T08:39:58.495Z,1023.92
2022-08-07T08:41:18.108Z,1023.94
2022-08-07T08:41:59.162Z,1023.93
2022-08-07T08:42:57.133Z,1023.95
2022-08-07T08:43:59.309Z,1023.93
2022-08-07T08:44:57.117Z,1023.88
2022-08-07T08:45:59.028Z,1023.92
2022-08-07T08:46:57.109Z,1023.91
2022-08-07T08:47:56.850Z,1023.94
2022-08-07T08:48:57.101Z,1023.95
2022-08-07T08:50:04.746Z,1023.90
2022-08-07T08:51:26.041Z,1023.85
2022-08-07T08:52:13.942Z,1023.86
2022-08-07T08:52:57.131Z,1023.87
2022-08-07T08:53:56.901Z,1023.86
2022-08-07T08:54:56.615Z,1023.89
2022-08-07T08:55:58.868Z,1023.89
2022-08-07T08:56:56.633Z,1023.87
2022-08-07T08:57:56.898Z,1023.92
2022-08-07T08:58:56.634Z,1023.86
2022-08-07T08:59:57.291Z,1023.86
2022-08-07T09:01:18.672Z,1023.84
2022-08-07T09:01:59.603Z,1023.83
2022-08-07T09:02:57.730Z,1023.88
2022-08-07T09:03:57.022Z,1023.92
2022-08-07T09:04:56.765Z,1023.89
2022-08-07T09:05:56.516Z,1023.94
2022-08-07T09:06:56.776Z,1023.87
2022-08-07T09:07:58.209Z,1023.90
2022-08-07T09:08:56.767Z,1023.92
2022-08-07T09:09:57.157Z,1023.88
2022-08-07T09:11:24.535Z,1023.89
2022-08-07T09:12:08.912Z,1023.93
2022-08-07T09:12:57.689Z,1023.93
2022-08-07T09:13:56.440Z,1023.95
2022-08-07T09:14:58.909Z,1023.90
2022-08-07T09:16:24.188Z,1023.95
2022-08-07T09:16:56.872Z,1023.88
2022-08-07T09:17:59.425Z,1023.88
2022-08-07T09:18:58.442Z,1023.86
2022-08-07T09:19:56.650Z,1023.86
2022-08-07T09:21:57.640Z,1023.87
2022-08-07T09:22:09.781Z,1023.87
2022-08-07T09:24:33.254Z,1023.86
2022-08-07T09:24:34.976Z,1023.87
2022-08-07T09:25:00.317Z,1023.85
2022-08-07T09:25:57.546Z,1023.82
2022-08-07T09:26:57.170Z,1023.81
2022-08-07T09:28:00.978Z,1023.81
2022-08-07T09:30:03.263Z,1023.81
2022-08-07T09:30:05.650Z,1023.80
2022-08-07T09:31:19.568Z,1023.81
2022-08-07T09:31:56.329Z,1023.79
2022-08-07T09:32:56.586Z,1023.76
2022-08-07T09:33:57.397Z,1023.77
2022-08-07T09:34:56.578Z,1023.77
2022-08-07T09:36:04.125Z,1023.82
2022-08-07T09:36:57.564Z,1023.71
2022-08-07T09:37:56.292Z,1023.72
2022-08-07T09:38:56.552Z,1023.70
2022-08-07T09:39:57.875Z,1023.70
2022-08-07T09:41:18.515Z,1023.68
2022-08-07T09:41:59.125Z,1023.70
2022-08-07T09:42:56.604Z,1023.66
2022-08-07T09:44:05.630Z,1023.68
2022-08-07T09:47:27.604Z,1023.68
2022-08-07T09:47:51.831Z,1023.67
2022-08-07T09:47:52.607Z,1023.59
2022-08-07T09:48:02.398Z,1023.56
2022-08-07T09:50:02.360Z,1023.61
2022-08-07T09:50:02.458Z,1023.59
2022-08-07T09:52:15.551Z,1023.47
2022-08-07T09:52:15.973Z,1023.51
2022-08-07T09:52:56.507Z,1023.49
2022-08-07T09:54:00.611Z,1023.47
2022-08-07T09:54:57.003Z,1023.48
2022-08-07T09:56:04.703Z,1023.47
2022-08-07T09:56:57.509Z,1023.43
2022-08-07T09:57:56.246Z,1023.39
2022-08-07T09:58:56.000Z,1023.41
2022-08-07T10:00:00.694Z,1023.43
2022-08-07T10:01:51.843Z,1023.34
2022-08-07T10:01:56.416Z,1023.42
2022-08-07T10:02:56.566Z,1023.38
2022-08-07T10:04:05.572Z,1023.42
2022-08-07T10:04:57.447Z,1023.37
2022-08-07T10:06:00.052Z,1023.34
2022-08-07T10:06:57.644Z,1023.31
2022-08-07T10:07:55.937Z,1023.28
2022-08-07T10:08:56.136Z,1023.27
2022-08-07T10:10:00.217Z,1023.21
2022-08-07T10:12:01.395Z,1023.21
2022-08-07T10:12:01.518Z,1023.24
2022-08-07T10:12:57.071Z,1023.16
2022-08-07T10:14:01.735Z,1023.25
2022-08-07T10:14:57.036Z,1023.20
2022-08-07T10:15:55.773Z,1023.16
2022-08-07T10:16:56.039Z,1023.18
2022-08-07T10:18:01.494Z,1023.11
2022-08-07T10:18:57.015Z,1023.13
2022-08-07T10:19:55.768Z,1023.09
2022-08-07T10:21:50.558Z,1023.13
2022-08-07T10:22:15.384Z,1023.08
2022-08-07T10:22:56.199Z,1023.09
2022-08-07T10:24:04.877Z,1023.06
2022-08-07T10:24:57.410Z,1023.10
2022-08-07T10:25:55.972Z,1023.08
2022-08-07T10:26:55.715Z,1023.08
2022-08-07T10:27:56.142Z,1023.07
2022-08-07T10:28:55.706Z,1023.05
2022-08-07T10:29:55.977Z,1023.06
2022-08-07T10:31:15.719Z,1023.08
2022-08-07T10:32:02.433Z,1023.03
2022-08-07T10:33:00.051Z,1022.97
2022-08-07T10:34:06.136Z,1022.95
2022-08-07T10:34:56.088Z,1022.97
2022-08-07T10:36:05.147Z,1022.95
2022-08-07T10:36:56.828Z,1022.93
2022-08-07T10:38:15.547Z,1022.91
2022-08-07T10:38:56.076Z,1022.89
2022-08-07T10:40:03.493Z,1022.81
2022-08-07T10:41:54.687Z,1022.87
2022-08-07T10:42:01.665Z,1022.93
2022-08-07T10:42:56.791Z,1022.86
2022-08-07T10:44:02.293Z,1022.89
2022-08-07T10:44:56.784Z,1022.85
2022-08-07T10:45:58.190Z,1022.85
2022-08-07T10:46:55.774Z,1022.82
2022-08-07T10:47:59.864Z,1022.84
2022-08-07T10:48:56.790Z,1022.83
2022-08-07T10:49:55.569Z,1022.84
2022-08-07T10:51:16.942Z,1022.86
2022-08-07T10:52:01.926Z,1022.83
2022-08-07T10:52:58.634Z,1022.78
2022-08-07T10:54:00.237Z,1022.80
2022-08-07T10:55:01.468Z,1022.77
2022-08-07T10:55:58.422Z,1022.80
2022-08-07T10:56:55.738Z,1022.75
2022-08-07T10:57:56.284Z,1022.69
2022-08-07T10:58:59.456Z,1022.73
2022-08-07T10:59:55.499Z,1022.71
2022-08-07T11:01:16.314Z,1022.71
2022-08-07T11:02:04.765Z,1022.67
2022-08-07T11:03:04.785Z,1022.73
2022-08-07T11:04:23.263Z,1022.71
2022-08-07T11:04:58.811Z,1022.62
2022-08-07T11:05:55.620Z,1022.65
2022-08-07T11:06:55.333Z,1022.64
2022-08-07T11:07:59.589Z,1022.61
2022-08-07T11:08:58.270Z,1022.61
2022-08-07T11:10:10.363Z,1022.58
2022-08-07T11:12:32.011Z,1022.56
2022-08-07T11:12:36.513Z,1022.63
2022-08-07T11:14:42.665Z,1022.57
2022-08-07T11:14:57.400Z,1022.56
2022-08-07T11:15:37.250Z,1022.55
2022-08-07T11:16:36.016Z,1022.50
2022-08-07T11:17:42.749Z,1022.50
2022-08-07T11:18:37.004Z,1022.50
2022-08-07T11:20:52.755Z,1022.46
2022-08-07T11:21:00.441Z,1022.33
2022-08-07T11:22:32.502Z,1022.36
2022-08-07T11:23:01.969Z,1022.34
2022-08-07T11:24:01.267Z,1022.33
2022-08-07T11:25:04.310Z,1022.40
2022-08-07T11:26:06.420Z,1022.40
2022-08-07T11:27:02.119Z,1022.29
2022-08-07T11:28:03.990Z,1022.25
2022-08-07T11:29:00.174Z,1022.24
2022-08-07T11:30:17.585Z,1022.26
2022-08-07T11:31:02.198Z,1022.29
2022-08-07T11:32:25.501Z,1022.23
2022-08-07T11:33:01.709Z,1022.26
2022-08-07T11:34:01.032Z,1022.27
2022-08-07T11:35:00.799Z,1022.30
2022-08-07T11:36:01.581Z,1022.28
2022-08-07T11:37:00.642Z,1022.26
2022-08-07T11:38:10.184Z,1022.27
2022-08-07T11:39:01.963Z,1022.31
2022-08-07T11:40:00.262Z,1022.28
2022-08-07T11:41:02.022Z,1022.24
2022-08-07T11:42:19.217Z,1022.28
2022-08-07T11:43:01.776Z,1022.28
2022-08-07T11:44:12.740Z,1022.27
2022-08-07T11:45:01.128Z,1022.29
2022-08-07T11:46:00.940Z,1022.32
2022-08-07T11:47:00.741Z,1022.27
2022-08-07T11:48:03.382Z,1022.31
2022-08-07T11:49:49.986Z,1022.32
2022-08-07T11:50:32.436Z,1022.32
2022-08-07T11:51:00.336Z,1022.29
2022-08-07T11:52:18.710Z,1022.27
2022-08-07T11:53:01.832Z,1022.28
2022-08-07T11:54:02.123Z,1022.22
2022-08-07T11:55:01.274Z,1022.31
2022-08-07T11:56:09.137Z,1022.24
2022-08-07T11:57:00.611Z,1022.23
2022-08-07T11:58:01.704Z,1022.20
2022-08-07T11:59:00.666Z,1022.23
2022-08-07T12:00:11.670Z,1022.21
2022-08-07T12:01:04.248Z,1022.21
2022-08-07T12:02:20.916Z,1022.21
2022-08-07T12:03:01.286Z,1022.19
2022-08-07T12:04:00.618Z,1022.18
2022-08-07T12:04:58.824Z,1022.18
2022-08-07T12:05:59.479Z,1022.25
2022-08-07T12:07:02.403Z,1022.26